createdAt,value
2019-05-02T00:00:36.524Z,80.560303
2019-05-02T00:01:46.049Z,80.657959
2019-05-02T00:02:59.736Z,80.761719
2019-05-02T00:04:05.057Z,80.560303
2019-05-02T00:05:15.572Z,80.761719
2019-05-02T00:06:25.102Z,79.626465
2019-05-02T00:07:34.615Z,79.730225
2019-05-02T00:08:44.142Z,79.11377
2019-05-02T00:09:53.670Z,78.69873
2019-05-02T00:11:03.192Z,78.80249
2019-05-02T00:12:12.728Z,78.55835
2019-05-02T00:13:22.262Z,78.594971
2019-05-02T00:14:31.792Z,78.594971
2019-05-02T00:15:41.301Z,78.24707
2019-05-02T00:16:50.808Z,78.143311
2019-05-02T00:18:01.335Z,78.143311
2019-05-02T00:19:13.887Z,78.387451
2019-05-02T00:20:21.002Z,78.491211
2019-05-02T00:21:32.829Z,78.491211
2019-05-02T00:22:41.292Z,78.283691
2019-05-02T00:23:51.843Z,78.80249
2019-05-02T00:25:02.341Z,79.11377
2019-05-02T00:26:11.869Z,79.11377
2019-05-02T00:27:21.398Z,79.11377
2019-05-02T00:28:30.931Z,79.522705
2019-05-02T00:29:40.450Z,79.559326
2019-05-02T00:30:49.991Z,80.389404
2019-05-02T00:31:59.507Z,80.389404
2019-05-02T00:33:10.502Z,80.389404
2019-05-02T00:34:18.559Z,80.633545
2019-05-02T00:35:28.100Z,80.841064
2019-05-02T00:36:37.641Z,81.25
2019-05-02T00:37:47.148Z,81.25
2019-05-02T00:38:56.682Z,80.633545
2019-05-02T00:40:06.213Z,81.35376
2019-05-02T00:41:15.737Z,80.944824
2019-05-02T00:42:25.294Z,81.048584
2019-05-02T00:43:36.337Z,80.010986
2019-05-02T00:44:46.805Z,80.737305
2019-05-02T00:45:54.947Z,80.426025
2019-05-02T00:47:06.001Z,80.529785
2019-05-02T00:48:19.189Z,80.529785
2019-05-02T00:49:24.340Z,80.737305
2019-05-02T00:50:34.869Z,80.633545
2019-05-02T00:51:45.378Z,80.322266
2019-05-02T00:52:54.915Z,80.633545
2019-05-02T00:54:04.462Z,80.633545
2019-05-02T00:55:13.982Z,81.048584
2019-05-02T00:56:23.509Z,80.737305
2019-05-02T00:57:33.028Z,80.426025
2019-05-02T00:58:42.560Z,80.633545
2019-05-02T00:59:52.119Z,80.426025
2019-05-02T01:01:01.636Z,81.292725
2019-05-02T01:02:11.154Z,81.085205
2019-05-02T01:03:20.691Z,81.292725
2019-05-02T01:04:30.193Z,81.292725
2019-05-02T01:05:40.277Z,81.536865
2019-05-02T01:06:50.760Z,81.842041
2019-05-02T01:08:01.003Z,82.25708
2019-05-02T01:09:10.859Z,82.049561
2019-05-02T01:10:21.176Z,83.190918
2019-05-02T01:11:28.169Z,82.983398
2019-05-02T01:12:39.802Z,83.331299
2019-05-02T01:13:50.205Z,84.057617
2019-05-02T01:14:57.833Z,84.576416
2019-05-02T01:16:08.337Z,84.057617
2019-05-02T01:17:18.857Z,84.368896
2019-05-02T01:18:29.364Z,83.435059
2019-05-02T01:19:39.876Z,83.331299
2019-05-02T01:20:50.395Z,83.850098
2019-05-02T01:22:00.923Z,83.679199
2019-05-02T01:23:10.445Z,84.094238
2019-05-02T01:24:19.960Z,83.886719
2019-05-02T01:25:29.485Z,83.886719
2019-05-02T01:26:38.992Z,84.405518
2019-05-02T01:27:48.514Z,84.753418
2019-05-02T01:28:58.044Z,85.168457
2019-05-02T01:30:07.589Z,85.583496
2019-05-02T01:31:18.278Z,85.687256
2019-05-02T01:32:29.995Z,85.064697
2019-05-02T01:33:36.735Z,84.753418
2019-05-02T01:34:48.866Z,85.894775
2019-05-02T01:35:57.399Z,85.998535
2019-05-02T01:37:11.834Z,84.857178
2019-05-02T01:38:18.429Z,85.272217
2019-05-02T01:39:28.949Z,85.687256
2019-05-02T01:40:38.486Z,85.791016
2019-05-02T01:41:48.008Z,85.583496
2019-05-02T01:42:57.521Z,86.724854
2019-05-02T01:44:07.043Z,86.517334
2019-05-02T01:45:16.588Z,86.206055
2019-05-02T01:46:26.110Z,86.102295
2019-05-02T01:47:35.838Z,85.687256
2019-05-02T01:48:46.076Z,85.375977
2019-05-02T01:49:57.086Z,85.687256
2019-05-02T01:51:09.547Z,85.83374
2019-05-02T01:52:18.833Z,86.04126
2019-05-02T01:53:29.117Z,85.72998
2019-05-02T01:54:35.684Z,86.14502
2019-05-02T01:55:46.187Z,86.206055
2019-05-02T01:56:56.669Z,85.791016
2019-05-02T01:58:07.193Z,85.583496
2019-05-02T01:59:17.693Z,85.272217
2019-05-02T02:00:27.205Z,85.028076
2019-05-02T02:01:36.752Z,84.716797
2019-05-02T02:02:46.273Z,84.613037
2019-05-02T02:03:55.795Z,84.197998
2019-05-02T02:05:05.327Z,83.990479
2019-05-02T02:06:14.858Z,83.746338
2019-05-02T02:07:24.385Z,83.538818
2019-05-02T02:08:34.064Z,83.123779
2019-05-02T02:09:43.881Z,83.02002
2019-05-02T02:10:56.034Z,82.60498
2019-05-02T02:12:04.881Z,82.397461
2019-05-02T02:13:13.869Z,82.293701
2019-05-02T02:14:23.388Z,82.397461
2019-05-02T02:15:32.932Z,82.092285
2019-05-02T02:16:42.459Z,81.988525
2019-05-02T02:17:52.641Z,81.988525
2019-05-02T02:19:03.916Z,82.092285
2019-05-02T02:20:14.008Z,82.189941
2019-05-02T02:21:25.495Z,82.092285
2019-05-02T02:22:33.669Z,81.945801
2019-05-02T02:23:44.861Z,81.842041
2019-05-02T02:24:55.854Z,81.640625
2019-05-02T02:26:02.551Z,81.536865
2019-05-02T02:27:13.021Z,81.329346
2019-05-02T02:28:23.532Z,81.225586
2019-05-02T02:29:34.038Z,81.121826
2019-05-02T02:30:44.564Z,81.225586
2019-05-02T02:31:54.081Z,81.225586
2019-05-02T02:33:07.329Z,81.225586
2019-05-02T02:34:14.068Z,81.433105
2019-05-02T02:35:24.600Z,81.329346
2019-05-02T02:36:34.906Z,81.018066
2019-05-02T02:37:51.770Z,80.914307
2019-05-02T02:38:54.132Z,80.810547
2019-05-02T02:40:03.668Z,80.603027
2019-05-02T02:41:15.037Z,80.706787
2019-05-02T02:42:24.820Z,80.706787
2019-05-02T02:43:34.783Z,80.603027
2019-05-02T02:44:42.642Z,80.499268
2019-05-02T02:45:57.531Z,80.291748
2019-05-02T02:47:02.661Z,80.187988
2019-05-02T02:48:13.171Z,79.980469
2019-05-02T02:49:24.481Z,79.980469
2019-05-02T02:50:36.505Z,79.736328
2019-05-02T02:51:41.706Z,79.736328
2019-05-02T02:52:51.220Z,79.736328
2019-05-02T02:54:03.728Z,79.632568
2019-05-02T02:55:15.992Z,79.632568
2019-05-02T02:56:20.764Z,79.632568
2019-05-02T02:57:30.249Z,79.632568
2019-05-02T02:58:45.455Z,79.632568
2019-05-02T02:59:50.239Z,79.632568
2019-05-02T03:01:00.760Z,79.632568
2019-05-02T03:02:11.950Z,79.736328
2019-05-02T03:03:20.616Z,79.840088
2019-05-02T03:04:30.301Z,79.736328
2019-05-02T03:05:39.818Z,79.736328
2019-05-02T03:06:49.340Z,79.840088
2019-05-02T03:07:59.399Z,79.840088
2019-05-02T03:09:09.328Z,79.980469
2019-05-02T03:10:18.901Z,80.084229
2019-05-02T03:11:28.435Z,80.084229
2019-05-02T03:12:41.388Z,80.291748
2019-05-02T03:13:52.212Z,80.499268
2019-05-02T03:14:58.971Z,80.499268
2019-05-02T03:16:09.289Z,80.603027
2019-05-02T03:17:20.248Z,80.603027
2019-05-02T03:18:39.388Z,80.706787
2019-05-02T03:19:38.986Z,80.810547
2019-05-02T03:20:48.534Z,81.121826
2019-05-02T03:22:01.297Z,81.225586
2019-05-02T03:23:14.963Z,81.158447
2019-05-02T03:24:20.018Z,81.469727
2019-05-02T03:25:48.602Z,81.677246
2019-05-02T03:26:40.130Z,81.469727
2019-05-02T03:27:50.644Z,81.365967
2019-05-02T03:29:00.851Z,81.225586
2019-05-02T03:30:09.668Z,80.914307
2019-05-02T03:31:24.579Z,80.706787
2019-05-02T03:32:34.847Z,80.603027
2019-05-02T03:33:54.115Z,80.499268
2019-05-02T03:34:53.220Z,80.395508
2019-05-02T03:36:01.134Z,80.395508
2019-05-02T03:37:13.420Z,80.603027
2019-05-02T03:38:30.906Z,80.499268
2019-05-02T03:39:30.655Z,80.499268
2019-05-02T03:40:41.332Z,80.499268
2019-05-02T03:41:55.380Z,80.291748
2019-05-02T03:43:00.177Z,80.291748
2019-05-02T03:44:11.762Z,79.980469
2019-05-02T03:45:20.190Z,79.669189
2019-05-02T03:46:29.759Z,79.431152
2019-05-02T03:47:43.437Z,79.327393
2019-05-02T03:48:49.744Z,79.119873
2019-05-02T03:50:00.263Z,79.016113
2019-05-02T03:51:19.078Z,78.912354
2019-05-02T03:52:21.268Z,78.912354
2019-05-02T03:53:30.793Z,78.808594
2019-05-02T03:54:48.252Z,78.808594
2019-05-02T03:55:50.824Z,78.808594
2019-05-02T03:57:00.343Z,78.497314
2019-05-02T03:58:13.967Z,78.497314
2019-05-02T03:59:20.347Z,78.460693
2019-05-02T04:00:30.869Z,78.460693
2019-05-02T04:01:41.165Z,78.601074
2019-05-02T04:02:58.888Z,78.808594
2019-05-02T04:04:00.382Z,78.912354
2019-05-02T04:05:09.894Z,78.808594
2019-05-02T04:06:20.797Z,78.912354
2019-05-02T04:07:39.298Z,79.016113
2019-05-02T04:08:39.391Z,79.016113
2019-05-02T04:09:48.906Z,79.016113
2019-05-02T04:10:59.321Z,79.119873
2019-05-02T04:12:11.391Z,79.119873
2019-05-02T04:13:18.415Z,79.327393
2019-05-02T04:14:37.158Z,79.223633
2019-05-02T04:15:38.407Z,79.327393
2019-05-02T04:16:48.455Z,79.327393
2019-05-02T04:17:58.429Z,79.223633
2019-05-02T04:19:08.938Z,79.223633
2019-05-02T04:20:18.477Z,79.327393
2019-05-02T04:21:28.002Z,79.431152
2019-05-02T04:22:42.662Z,79.327393
2019-05-02T04:23:47.996Z,79.223633
2019-05-02T04:24:57.503Z,79.431152
2019-05-02T04:26:12.536Z,79.223633
2019-05-02T04:27:17.541Z,79.327393
2019-05-02T04:28:28.058Z,79.223633
2019-05-02T04:29:37.573Z,79.119873
2019-05-02T04:30:51.057Z,79.290771
2019-05-02T04:31:57.591Z,79.290771
2019-05-02T04:33:08.072Z,79.187012
2019-05-02T04:34:17.980Z,78.979492
2019-05-02T04:35:28.655Z,79.083252
2019-05-02T04:36:37.602Z,78.979492
2019-05-02T04:37:48.113Z,78.875732
2019-05-02T04:38:59.521Z,78.875732
2019-05-02T04:40:11.903Z,78.875732
2019-05-02T04:41:27.947Z,78.771973
2019-05-02T04:42:29.330Z,78.668213
2019-05-02T04:43:40.439Z,78.631592
2019-05-02T04:45:11.562Z,78.424072
2019-05-02T04:46:00.098Z,78.320312
2019-05-02T04:47:16.860Z,78.009033
2019-05-02T04:48:18.608Z,77.703857
2019-05-02T04:49:32.992Z,77.459717
2019-05-02T04:50:38.560Z,77.563477
2019-05-02T04:51:59.792Z,77.148438
2019-05-02T04:52:59.232Z,76.940918
2019-05-02T04:54:09.177Z,77.044678
2019-05-02T04:55:25.580Z,76.702881
2019-05-02T04:56:29.109Z,76.702881
2019-05-02T04:57:46.739Z,76.495361
2019-05-02T04:58:49.698Z,76.391602
2019-05-02T05:00:06.077Z,75.427246
2019-05-02T05:01:10.056Z,75.634766
2019-05-02T05:02:20.794Z,75.531006
2019-05-02T05:03:29.225Z,75.012207
2019-05-02T05:04:45.745Z,74.77417
2019-05-02T05:05:49.237Z,74.77417
2019-05-02T05:07:01.041Z,75.286865
2019-05-02T05:08:08.271Z,74.053955
2019-05-02T05:09:18.760Z,74.224854
2019-05-02T05:10:28.282Z,74.017334
2019-05-02T05:11:38.778Z,73.400879
2019-05-02T05:12:48.317Z,73.0896
2019-05-02T05:14:00.293Z,72.747803
2019-05-02T05:15:07.805Z,72.332764
2019-05-02T05:16:18.531Z,72.747803
2019-05-02T05:17:32.420Z,72.711182
2019-05-02T05:18:37.990Z,72.711182
2019-05-02T05:19:48.697Z,72.302246
2019-05-02T05:20:57.842Z,72.161865
2019-05-02T05:22:11.554Z,71.54541
2019-05-02T05:23:19.744Z,71.960449
2019-05-02T05:24:27.942Z,70.996094
2019-05-02T05:25:37.836Z,70.898438
2019-05-02T05:26:47.641Z,70.690918
2019-05-02T05:27:58.200Z,70.587158
2019-05-02T05:29:08.209Z,70.379639
2019-05-02T05:30:18.605Z,69.836426
2019-05-02T05:31:28.881Z,69.628906
2019-05-02T05:32:37.563Z,69.012451
2019-05-02T05:33:45.390Z,69.390869
2019-05-02T05:34:54.917Z,69.18335
2019-05-02T05:36:05.420Z,69.256592
2019-05-02T05:37:17.121Z,67.816162
2019-05-02T05:38:28.419Z,67.407227
2019-05-02T05:39:34.969Z,67.480469
2019-05-02T05:40:47.846Z,66.96167
2019-05-02T05:41:54.961Z,66.833496
2019-05-02T05:43:11.942Z,66.729736
2019-05-02T05:44:14.986Z,65.771484
2019-05-02T05:45:27.756Z,65.362549
2019-05-02T05:46:38.603Z,65.026855
2019-05-02T05:47:45.544Z,64.4104
2019-05-02T05:48:57.801Z,64.819336
2019-05-02T05:50:05.590Z,64.306641
2019-05-02T05:51:16.886Z,64.202881
2019-05-02T05:52:27.119Z,63.458252
2019-05-02T05:53:37.483Z,63.354492
2019-05-02T05:54:47.368Z,63.73291
2019-05-02T05:55:58.817Z,62.70752
2019-05-02T05:57:07.523Z,62.298584
2019-05-02T05:58:18.601Z,62.06665
2019-05-02T05:59:27.911Z,61.761475
2019-05-02T06:00:37.995Z,61.14502
2019-05-02T06:01:47.792Z,61.114502
2019-05-02T06:03:01.896Z,61.322021
2019-05-02T06:04:07.953Z,61.010742
2019-05-02T06:05:17.536Z,61.700439
2019-05-02T06:06:27.379Z,60.882568
2019-05-02T06:07:41.691Z,60.577393
2019-05-02T06:08:49.071Z,60.778809
2019-05-02T06:09:57.207Z,60.650635
2019-05-02T06:11:07.707Z,60.546875
2019-05-02T06:12:18.246Z,60.241699
2019-05-02T06:13:28.780Z,60.827637
2019-05-02T06:14:38.294Z,60.418701
2019-05-02T06:16:00.908Z,59.60083
2019-05-02T06:16:58.329Z,58.984375
2019-05-02T06:18:07.858Z,59.057617
2019-05-02T06:19:17.775Z,58.551025
2019-05-02T06:20:30.520Z,58.03833
2019-05-02T06:21:39.917Z,58.343506
2019-05-02T06:22:47.927Z,57.702637
2019-05-02T06:23:58.469Z,57.501221
2019-05-02T06:25:09.048Z,57.702637
2019-05-02T06:26:17.476Z,57.781982
2019-05-02T06:27:30.396Z,57.574463
2019-05-02T06:28:41.505Z,57.342529
2019-05-02T06:29:51.053Z,57.141113
2019-05-02T06:30:57.488Z,57.141113
2019-05-02T06:32:07.030Z,56.427002
2019-05-02T06:33:17.562Z,57.012939
2019-05-02T06:34:28.059Z,57.116699
2019-05-02T06:35:38.590Z,56.57959
2019-05-02T06:36:48.096Z,56.781006
2019-05-02T06:37:57.653Z,56.549072
2019-05-02T06:39:07.156Z,56.14624
2019-05-02T06:40:16.664Z,54.589844
2019-05-02T06:41:26.203Z,53.875732
2019-05-02T06:42:37.834Z,54.589844
2019-05-02T06:43:46.494Z,55.072021
2019-05-02T06:44:59.267Z,55.175781
2019-05-02T06:46:15.355Z,53.723145
2019-05-02T06:47:15.696Z,52.911377
2019-05-02T06:48:25.242Z,52.606201
2019-05-02T06:49:34.758Z,51.867676
2019-05-02T06:50:44.280Z,52.172852
2019-05-02T06:51:56.108Z,51.538086
2019-05-02T06:53:04.238Z,50.317383
2019-05-02T06:54:17.934Z,50.421143
2019-05-02T06:55:27.787Z,49.993896
2019-05-02T06:56:34.838Z,50.091553
2019-05-02T06:57:45.357Z,49.279785
2019-05-02T06:58:55.897Z,49.255371
2019-05-02T07:00:06.525Z,48.547363
2019-05-02T07:01:16.104Z,48.64502
2019-05-02T07:02:28.118Z,48.443604
2019-05-02T07:03:35.925Z,49.053955
2019-05-02T07:04:46.419Z,48.724365
2019-05-02T07:05:58.585Z,48.724365
2019-05-02T07:07:07.443Z,47.406006
2019-05-02T07:08:17.987Z,47.814941
2019-05-02T07:09:39.763Z,47.833252
2019-05-02T07:10:44.647Z,48.64502
2019-05-02T07:11:56.867Z,48.419189
2019-05-02T07:13:09.916Z,47.912598
2019-05-02T07:14:13.234Z,47.711182
2019-05-02T07:15:20.966Z,48.114014
2019-05-02T07:16:38.312Z,48.64502
2019-05-02T07:17:40.957Z,49.053955
2019-05-02T07:18:50.472Z,49.133301
2019-05-02T07:20:03.773Z,49.005127
2019-05-02T07:21:12.052Z,47.589111
2019-05-02T07:22:20.980Z,47.668457
2019-05-02T07:23:30.532Z,47.363281
2019-05-02T07:24:40.096Z,47.540283
2019-05-02T07:25:49.637Z,46.832275
2019-05-02T07:27:01.933Z,47.338867
2019-05-02T07:28:09.347Z,47.216797
2019-05-02T07:29:21.765Z,47.113037
2019-05-02T07:30:30.001Z,46.606445
2019-05-02T07:31:38.177Z,47.216797
2019-05-02T07:32:47.676Z,47.296143
2019-05-02T07:33:57.239Z,46.685791
2019-05-02T07:35:06.756Z,46.258545
2019-05-02T07:36:16.319Z,46.160889
2019-05-02T07:37:25.860Z,45.025635
2019-05-02T07:38:35.405Z,43.707275
2019-05-02T07:39:44.903Z,43.890381
2019-05-02T07:40:54.398Z,44.293213
2019-05-02T07:42:05.734Z,44.293213
2019-05-02T07:43:20.691Z,43.786621
2019-05-02T07:44:27.053Z,42.962646
2019-05-02T07:45:34.446Z,43.365479
2019-05-02T07:46:51.438Z,43.365479
2019-05-02T07:47:55.513Z,42.858887
2019-05-02T07:49:06.069Z,42.352295
2019-05-02T07:50:15.642Z,42.553711
2019-05-02T07:51:25.155Z,42.63916
2019-05-02T07:52:34.933Z,42.736816
2019-05-02T07:53:48.457Z,42.010498
2019-05-02T07:54:56.054Z,42.919922
2019-05-02T07:56:05.186Z,42.614746
2019-05-02T07:57:15.747Z,41.18042
2019-05-02T07:58:25.281Z,40.393066
2019-05-02T07:59:34.814Z,41.30249
2019-05-02T08:00:44.341Z,41.729736
2019-05-02T08:01:53.852Z,41.021729
2019-05-02T08:03:05.032Z,42.431641
2019-05-02T08:04:13.060Z,42.211914
2019-05-02T08:05:23.856Z,41.790771
2019-05-02T08:06:35.153Z,41.18042
2019-05-02T08:07:42.463Z,40.960693
2019-05-02T08:08:52.053Z,41.162109
2019-05-02T08:10:01.630Z,41.448975
2019-05-02T08:11:11.199Z,40.435791
2019-05-02T08:12:20.712Z,41.424561
2019-05-02T08:13:31.471Z,41.326904
2019-05-02T08:14:39.863Z,41.607666
2019-05-02T08:15:50.718Z,40.600586
2019-05-02T08:17:05.561Z,39.996338
2019-05-02T08:18:09.405Z,40.380859
2019-05-02T08:19:18.963Z,40.362549
2019-05-02T08:20:28.527Z,38.452148
2019-05-02T08:21:38.138Z,38.549805
2019-05-02T08:22:48.867Z,38.269043
2019-05-02T08:24:01.740Z,39.172363
2019-05-02T08:25:10.321Z,38.452148
2019-05-02T08:26:21.548Z,37.023926
2019-05-02T08:27:29.135Z,36.737061
2019-05-02T08:28:38.271Z,36.517334
2019-05-02T08:29:47.864Z,36.315918
2019-05-02T08:30:57.381Z,36.401367
2019-05-02T08:32:06.889Z,36.401367
2019-05-02T08:33:16.481Z,35.913086
2019-05-02T08:34:26.049Z,36.553955
2019-05-02T08:35:35.660Z,37.561035
2019-05-02T08:36:45.172Z,37.359619
2019-05-02T08:37:56.052Z,36.871338
2019-05-02T08:39:04.543Z,37.780762
2019-05-02T08:40:14.069Z,37.261963
2019-05-02T08:41:23.618Z,37.677002
2019-05-02T08:42:33.813Z,37.963867
2019-05-02T08:43:44.835Z,36.956787
2019-05-02T08:44:56.211Z,37.261963
2019-05-02T08:46:02.596Z,37.866211
2019-05-02T08:47:18.869Z,37.139893
2019-05-02T08:48:23.604Z,36.737061
2019-05-02T08:49:33.118Z,37.542725
2019-05-02T08:50:42.634Z,37.023926
2019-05-02T08:51:53.127Z,36.517334
2019-05-02T08:53:02.642Z,36.700439
2019-05-02T08:54:12.154Z,36.602783
2019-05-02T08:55:21.678Z,36.2854
2019-05-02T08:56:31.215Z,36.364746
2019-05-02T08:57:40.735Z,36.468506
2019-05-02T08:58:51.151Z,36.950684
2019-05-02T09:00:00.154Z,36.151123
2019-05-02T09:01:13.233Z,36.767578
2019-05-02T09:02:21.018Z,36.950684
2019-05-02T09:03:35.124Z,36.450195
2019-05-02T09:04:40.734Z,36.651611
2019-05-02T09:05:51.258Z,37.17041
2019-05-02T09:07:01.813Z,37.976074
2019-05-02T09:08:14.203Z,36.669922
2019-05-02T09:09:22.680Z,37.072754
2019-05-02T09:10:32.283Z,37.469482
2019-05-02T09:11:43.784Z,36.669922
2019-05-02T09:12:52.255Z,36.383057
2019-05-02T09:14:02.146Z,37.286377
2019-05-02T09:15:11.859Z,37.390137
2019-05-02T09:16:28.103Z,37.371826
2019-05-02T09:17:35.896Z,37.255859
2019-05-02T09:18:50.505Z,36.547852
2019-05-02T09:20:00.175Z,37.335205
2019-05-02T09:21:02.809Z,35.632324
2019-05-02T09:22:15.286Z,36.633301
2019-05-02T09:23:22.773Z,36.816406
2019-05-02T09:24:32.633Z,36.499023
2019-05-02T09:25:42.955Z,36.480713
2019-05-02T09:26:51.874Z,35.864258
2019-05-02T09:28:01.826Z,35.644531
2019-05-02T09:29:10.378Z,35.72998
2019-05-02T09:30:22.463Z,33.624268
2019-05-02T09:31:31.938Z,33.856201
2019-05-02T09:32:41.840Z,34.674072
2019-05-02T09:33:52.029Z,34.692383
2019-05-02T09:35:04.290Z,34.692383
2019-05-02T09:36:11.959Z,34.411621
2019-05-02T09:37:22.727Z,34.912109
2019-05-02T09:38:30.491Z,36.413574
2019-05-02T09:39:41.517Z,35.296631
2019-05-02T09:40:52.443Z,34.875488
2019-05-02T09:42:01.999Z,35.394287
2019-05-02T09:43:12.155Z,34.796143
2019-05-02T09:44:20.037Z,34.80835
2019-05-02T09:45:33.232Z,34.509277
2019-05-02T09:46:40.061Z,35.614014
2019-05-02T09:47:57.175Z,35.296631
2019-05-02T09:49:02.354Z,35.375977
2019-05-02T09:50:12.818Z,35.461426
2019-05-02T09:51:21.590Z,35.748291
2019-05-02T09:52:32.082Z,34.326172
2019-05-02T09:53:43.079Z,33.343506
2019-05-02T09:54:51.842Z,33.1604
2019-05-02T09:56:01.894Z,33.959961
2019-05-02T09:57:09.694Z,34.362793
2019-05-02T09:58:21.358Z,34.161377
2019-05-02T09:59:30.344Z,35.192871
2019-05-02T10:00:38.237Z,35.314941
2019-05-02T10:01:47.782Z,35.314941
2019-05-02T10:02:57.311Z,35.71167
2019-05-02T10:04:07.882Z,35.81543
2019-05-02T10:05:17.403Z,35.913086
2019-05-02T10:06:27.948Z,34.991455
2019-05-02T10:07:38.489Z,36.297607
2019-05-02T10:08:47.992Z,35.375977
2019-05-02T10:10:03.012Z,35.180664
2019-05-02T10:11:09.024Z,34.863281
2019-05-02T10:12:19.527Z,34.875488
2019-05-02T10:13:29.036Z,35.296631
2019-05-02T10:14:38.564Z,35.528564
2019-05-02T10:15:48.046Z,35.72998
2019-05-02T10:17:02.154Z,36.047363
2019-05-02T10:18:11.344Z,36.950684
2019-05-02T10:19:18.635Z,35.913086
2019-05-02T10:20:31.704Z,36.096191
2019-05-02T10:21:39.655Z,36.248779
2019-05-02T10:22:50.257Z,34.796143
2019-05-02T10:24:00.983Z,34.381104
2019-05-02T10:25:09.283Z,33.26416
2019-05-02T10:26:19.969Z,33.197021
2019-05-02T10:27:29.317Z,33.679199
2019-05-02T10:28:41.647Z,34.863281
2019-05-02T10:29:49.338Z,33.093262
2019-05-02T10:30:58.873Z,34.460449
2019-05-02T10:32:12.298Z,35.479736
2019-05-02T10:33:18.882Z,35.693359
2019-05-02T10:34:28.395Z,35.913086
2019-05-02T10:35:40.664Z,35.113525
2019-05-02T10:36:51.846Z,36.016846
2019-05-02T10:37:58.957Z,35.192871
2019-05-02T10:39:08.504Z,34.759521
2019-05-02T10:40:19.064Z,35.247803
2019-05-02T10:41:31.610Z,34.0271
2019-05-02T10:42:39.083Z,33.123779
2019-05-02T10:43:51.870Z,33.728027
2019-05-02T10:44:59.137Z,34.124756
2019-05-02T10:46:09.700Z,34.228516
2019-05-02T10:47:19.226Z,34.729004
2019-05-02T10:48:29.109Z,34.143066
2019-05-02T10:49:38.253Z,34.326172
2019-05-02T10:50:47.749Z,33.410645
2019-05-02T10:51:57.273Z,33.795166
2019-05-02T10:53:11.767Z,34.777832
2019-05-02T10:54:20.572Z,32.37915
2019-05-02T10:55:27.830Z,32.281494
2019-05-02T10:56:38.486Z,33.111572
2019-05-02T10:57:47.963Z,32.70874
2019-05-02T10:58:57.610Z,33.428955
2019-05-02T11:00:07.109Z,34.124756
2019-05-02T11:01:16.671Z,33.441162
2019-05-02T11:02:27.198Z,33.825684
2019-05-02T11:03:42.852Z,33.123779
2019-05-02T11:04:48.502Z,32.525635
2019-05-02T11:06:03.524Z,33.239746
2019-05-02T11:07:08.807Z,34.04541
2019-05-02T11:08:19.264Z,34.625244
2019-05-02T11:09:28.816Z,33.026123
2019-05-02T11:10:38.396Z,32.843018
2019-05-02T11:11:47.969Z,33.056641
2019-05-02T11:12:57.556Z,33.47168
2019-05-02T11:14:07.062Z,33.978271
2019-05-02T11:15:16.611Z,34.161377
2019-05-02T11:16:27.155Z,33.825684
2019-05-02T11:17:36.723Z,32.781982
2019-05-02T11:18:47.438Z,31.878662
2019-05-02T11:19:57.943Z,31.896973
2019-05-02T11:21:08.344Z,30.993652
2019-05-02T11:22:17.132Z,31.82373
2019-05-02T11:23:27.739Z,31.512451
2019-05-02T11:24:38.256Z,32.611084
2019-05-02T11:25:47.824Z,31.57959
2019-05-02T11:26:57.375Z,32.733154
2019-05-02T11:28:07.262Z,30.236816
2019-05-02T11:29:17.509Z,30.438232
2019-05-02T11:30:28.049Z,29.937744
2019-05-02T11:31:37.601Z,29.437256
2019-05-02T11:32:48.210Z,30.151367
2019-05-02T11:33:57.743Z,30.334473
2019-05-02T11:35:07.293Z,30.310059
2019-05-02T11:36:16.811Z,29.907227
2019-05-02T11:37:27.386Z,30.279541
2019-05-02T11:38:38.532Z,29.669189
2019-05-02T11:39:52.218Z,28.570557
2019-05-02T11:40:59.134Z,28.997803
2019-05-02T11:42:08.734Z,30.206299
2019-05-02T11:43:18.237Z,29.711914
2019-05-02T11:44:27.738Z,30.438232
2019-05-02T11:45:37.646Z,30.651855
2019-05-02T11:46:47.200Z,30.395508
2019-05-02T11:48:01.585Z,29.064941
2019-05-02T11:49:07.236Z,28.78418
2019-05-02T11:50:16.772Z,27.893066
2019-05-02T11:51:27.312Z,28.283691
2019-05-02T11:52:37.912Z,27.453613
2019-05-02T11:53:47.439Z,27.844238
2019-05-02T11:54:57.989Z,28.00293
2019-05-02T11:56:09.452Z,26.196289
2019-05-02T11:57:20.950Z,25.610352
2019-05-02T11:58:28.756Z,25.610352
2019-05-02T11:59:38.277Z,25
2019-05-02T12:00:49.523Z,22.729492
2019-05-02T12:01:59.984Z,23.638916
2019-05-02T12:03:08.088Z,23.828125
2019-05-02T12:04:17.871Z,24.42627
2019-05-02T12:05:31.619Z,24.401855
2019-05-02T12:06:37.908Z,24.786377
2019-05-02T12:07:47.506Z,24.786377
2019-05-02T12:08:58.021Z,26.831055
2019-05-02T12:10:08.587Z,26.831055
2019-05-02T12:11:18.104Z,26.220703
2019-05-02T12:12:32.326Z,24.603271
2019-05-02T12:13:38.259Z,22.711182
2019-05-02T12:14:47.792Z,22.808838
2019-05-02T12:15:57.319Z,23.297119
2019-05-02T12:17:07.889Z,22.589111
2019-05-02T12:18:20.257Z,22.070312
2019-05-02T12:19:28.482Z,24.328613
2019-05-02T12:20:38.484Z,25.512695
2019-05-02T12:21:47.851Z,25.88501
2019-05-02T12:22:57.382Z,24.993896
2019-05-02T12:24:06.947Z,23.095703
2019-05-02T12:25:17.466Z,22.003174
2019-05-02T12:26:27.010Z,19.458008
2019-05-02T12:27:37.523Z,20.361328
2019-05-02T12:28:47.051Z,21.350098
2019-05-02T12:29:58.171Z,21.051025
2019-05-02T12:31:12.348Z,21.966553
2019-05-02T12:32:18.564Z,22.076416
2019-05-02T12:33:28.122Z,22.290039
2019-05-02T12:34:38.774Z,22.875977
2019-05-02T12:35:48.286Z,22.259521
2019-05-02T12:36:57.799Z,21.075439
2019-05-02T12:38:07.326Z,21.484375
2019-05-02T12:39:17.048Z,21.789551
2019-05-02T12:40:28.379Z,21.990967
2019-05-02T12:41:37.885Z,22.369385
2019-05-02T12:42:47.385Z,22.949219
2019-05-02T12:43:57.921Z,22.839355
2019-05-02T12:45:07.443Z,23.028564
2019-05-02T12:46:16.962Z,21.716309
2019-05-02T12:47:27.520Z,21.917725
2019-05-02T12:48:37.070Z,21.697998
2019-05-02T12:49:47.572Z,20.904541
2019-05-02T12:50:57.192Z,21.313477
2019-05-02T12:52:07.874Z,21.331787
2019-05-02T12:53:17.436Z,21.142578
2019-05-02T12:54:26.959Z,22.247314
2019-05-02T12:55:38.027Z,22.216797
2019-05-02T12:56:48.185Z,22.399902
2019-05-02T12:57:57.826Z,23.394775
2019-05-02T12:59:08.366Z,22.998047
2019-05-02T13:00:18.513Z,22.698975
2019-05-02T13:01:27.435Z,21.936035
2019-05-02T13:02:37.996Z,23.065186
2019-05-02T13:03:47.539Z,22.943115
2019-05-02T13:04:57.083Z,22.53418
2019-05-02T13:06:07.609Z,21.917725
2019-05-02T13:07:17.139Z,21.112061
2019-05-02T13:08:27.679Z,21.30127
2019-05-02T13:09:37.207Z,21.30127
2019-05-02T13:10:46.755Z,21.032715
2019-05-02T13:11:57.290Z,22.137451
2019-05-02T13:13:07.848Z,21.728516
2019-05-02T13:14:19.550Z,21.31958
2019-05-02T13:15:27.980Z,21.026611
2019-05-02T13:16:38.473Z,21.112061
2019-05-02T13:17:48.990Z,21.411133
2019-05-02T13:19:02.784Z,21.807861
2019-05-02T13:20:08.112Z,22.216797